createdAt,value
2023-01-19T00:00:18.202Z,-2.83
2023-01-19T00:05:18.982Z,-2.74
2023-01-19T00:10:20.238Z,-2.79
2023-01-19T00:15:21.072Z,-2.80
2023-01-19T00:20:21.843Z,-2.81
2023-01-19T00:25:22.600Z,-2.84
2023-01-19T00:30:23.394Z,-2.63
2023-01-19T00:35:24.295Z,-2.62
2023-01-19T00:40:25.063Z,-2.62
2023-01-19T00:45:26.026Z,-2.62
2023-01-19T00:50:28.757Z,-2.64
2023-01-19T00:55:31.633Z,-2.54
2023-01-19T01:00:32.802Z,-2.57
2023-01-19T01:05:33.568Z,-2.47
2023-01-19T01:10:34.301Z,-2.31
2023-01-19T01:15:35.223Z,-2.30
2023-01-19T01:20:36.638Z,-2.23
2023-01-19T01:25:37.949Z,-2.38
2023-01-19T01:30:40.332Z,-2.48
2023-01-19T01:35:41.110Z,-2.36
2023-01-19T01:40:42.251Z,-2.47
2023-01-19T01:45:43.496Z,-2.35
2023-01-19T01:51:07.749Z,-2.30
2023-01-19T01:56:13.593Z,-2.28
2023-01-19T02:01:32.956Z,-2.10
2023-01-19T02:06:34.004Z,-2.00
2023-01-19T02:11:53.491Z,-1.90
2023-01-19T02:16:54.547Z,-1.72
2023-01-19T02:22:14.567Z,-1.70
2023-01-19T02:27:16.253Z,-1.63
2023-01-19T02:32:16.997Z,-1.68
2023-01-19T02:37:19.325Z,-1.65
2023-01-19T02:42:30.156Z,-1.76
2023-01-19T02:47:38.201Z,-1.76
2023-01-19T02:52:38.992Z,-1.47
2023-01-19T03:02:57.211Z,-1.55
2023-01-19T03:08:23.639Z,-1.57
2023-01-19T03:13:52.199Z,-1.47
2023-01-19T03:18:59.158Z,-1.60
2023-01-19T03:24:03.334Z,-1.58
2023-01-19T03:29:06.145Z,-1.57
2023-01-19T03:34:10.867Z,-1.68
2023-01-19T03:39:16.845Z,-1.70
2023-01-19T03:44:17.762Z,-1.62
2023-01-19T03:49:18.803Z,-1.73
2023-01-19T03:54:19.509Z,-1.62
2023-01-19T03:59:21.097Z,-1.79
2023-01-19T04:04:21.828Z,-1.83
2023-01-19T04:09:22.603Z,-1.86
2023-01-19T04:14:23.324Z,-1.91
2023-01-19T04:19:24.612Z,-1.84
2023-01-19T04:24:25.332Z,-1.83
2023-01-19T04:29:26.153Z,-1.81
2023-01-19T04:34:26.855Z,-1.82
2023-01-19T04:39:27.620Z,-1.79
2023-01-19T04:44:28.658Z,-1.76
2023-01-19T04:49:29.716Z,-1.68
2023-01-19T04:54:30.444Z,-1.65
2023-01-19T04:59:31.299Z,-1.55
2023-01-19T05:04:32.036Z,-1.56
2023-01-19T05:09:32.818Z,-1.42
2023-01-19T05:14:33.593Z,-1.36
2023-01-19T05:19:34.722Z,-1.35
2023-01-19T05:24:35.462Z,-1.40
2023-01-19T05:29:36.409Z,-1.32
2023-01-19T05:34:37.149Z,-1.21
2023-01-19T05:39:37.938Z,-1.17
2023-01-19T05:44:38.677Z,-1.20
2023-01-19T05:49:39.578Z,-1.15
2023-01-19T05:54:40.364Z,-1.17
2023-01-19T05:59:41.154Z,-1.17
2023-01-19T06:04:41.963Z,-1.20
2023-01-19T06:09:42.741Z,-1.24
2023-01-19T06:14:43.646Z,-1.14
2023-01-19T06:19:44.597Z,-0.84
2023-01-19T06:24:45.379Z,-0.96
2023-01-19T06:29:46.475Z,-1.06
2023-01-19T06:34:47.433Z,-0.92
2023-01-19T06:39:48.281Z,-1.02
2023-01-19T06:44:49.026Z,-0.99
2023-01-19T06:49:49.874Z,-0.94
2023-01-19T06:54:50.603Z,-0.96
2023-01-19T06:59:51.553Z,-0.99
2023-01-19T07:04:52.363Z,-1.05
2023-01-19T07:09:53.984Z,-1.00
2023-01-19T07:14:55.303Z,-1.04
2023-01-19T07:19:56.332Z,-1.04
2023-01-19T07:24:58.122Z,-0.97
2023-01-19T07:30:00.751Z,-0.95
2023-01-19T07:35:01.614Z,-1.10
2023-01-19T07:40:03.093Z,-1.22
2023-01-19T07:45:04.582Z,-1.20
2023-01-19T07:50:05.926Z,-1.15
2023-01-19T07:55:07.553Z,-1.17
2023-01-19T08:00:09.539Z,-1.22
2023-01-19T08:05:14.553Z,-1.19
2023-01-19T08:10:16.196Z,-1.00
2023-01-19T08:15:17.020Z,-0.94
2023-01-19T08:20:18.033Z,-0.68
2023-01-19T08:25:18.772Z,-0.49
2023-01-19T08:30:19.911Z,-0.46
2023-01-19T08:35:21.750Z,-0.63
2023-01-19T08:40:22.631Z,-0.83
2023-01-19T08:45:23.509Z,-0.67
2023-01-19T08:50:29.212Z,-0.36
2023-01-19T08:55:30.063Z,-0.19
2023-01-19T09:00:32.913Z,-0.27
2023-01-19T09:05:38.070Z,-0.34
2023-01-19T09:10:47.783Z,-0.26
2023-01-19T09:15:48.765Z,-0.39
2023-01-19T09:20:50.221Z,-0.48
2023-01-19T09:25:56.410Z,-0.56
2023-01-19T09:30:57.306Z,-0.55
2023-01-19T09:35:58.388Z,-0.47
2023-01-19T09:41:00.019Z,-0.48
2023-01-19T09:46:04.672Z,-0.52
2023-01-19T09:51:10.286Z,-0.49
2023-01-19T09:56:16.827Z,-0.73
2023-01-19T10:01:48.986Z,-0.74
2023-01-19T10:06:53.005Z,-0.59
2023-01-19T10:12:00.280Z,-0.52
2023-01-19T10:23:40.629Z,-0.44
2023-01-19T10:28:43.114Z,-0.29
2023-01-19T10:33:43.897Z,-0.18
2023-01-19T10:38:46.103Z,-0.08
2023-01-19T10:43:47.502Z,0.21
2023-01-19T10:48:50.919Z,0.39
2023-01-19T10:53:55.463Z,0.28
2023-01-19T10:58:59.425Z,0.42
2023-01-19T11:04:04.831Z,0.42
2023-01-19T11:09:20.073Z,0.48
2023-01-19T11:14:23.640Z,0.56
2023-01-19T11:19:30.754Z,0.53
2023-01-19T11:24:31.573Z,0.56
2023-01-19T11:29:32.500Z,0.46
2023-01-19T11:34:38.001Z,0.48
2023-01-19T11:39:48.094Z,0.40
2023-01-19T11:45:14.185Z,0.37
2023-01-19T11:50:37.056Z,0.42
2023-01-19T11:55:49.820Z,0.41
2023-01-19T12:01:01.667Z,0.39
2023-01-19T12:06:17.526Z,0.41
2023-01-19T12:11:25.139Z,0.48
2023-01-19T12:16:29.492Z,0.56
2023-01-19T12:21:30.297Z,0.53
2023-01-19T12:26:44.276Z,0.61
2023-01-19T12:31:46.204Z,0.67
2023-01-19T12:36:48.392Z,0.70
2023-01-19T12:42:05.659Z,0.82
2023-01-19T12:47:27.853Z,0.79
2023-01-19T12:53:02.863Z,0.95
2023-01-19T12:58:23.761Z,0.96
2023-01-19T13:04:28.846Z,0.97
2023-01-19T13:09:36.102Z,0.89
2023-01-19T13:14:37.607Z,1.16
2023-01-19T13:19:45.970Z,1.25
2023-01-19T13:25:13.298Z,1.09
2023-01-19T13:30:18.722Z,1.07
2023-01-19T13:35:21.789Z,1.17
2023-01-19T13:40:25.402Z,1.51
2023-01-19T13:45:33.389Z,1.48
2023-01-19T13:50:38.983Z,1.68
2023-01-19T13:55:39.895Z,1.33
2023-01-19T14:00:44.899Z,1.34
2023-01-19T14:05:50.280Z,1.27
2023-01-19T14:11:01.624Z,1.14
2023-01-19T14:16:12.774Z,1.10
2023-01-19T14:21:14.878Z,1.11
2023-01-19T14:26:42.404Z,1.18
2023-01-19T14:32:44.183Z,1.31
2023-01-19T14:37:48.017Z,1.56
2023-01-19T14:43:05.498Z,1.55
2023-01-19T14:48:17.980Z,1.56
2023-01-19T14:53:25.136Z,1.48
2023-01-19T14:58:28.813Z,1.59
2023-01-19T15:03:43.465Z,1.66
2023-01-19T15:08:46.382Z,1.43
2023-01-19T15:13:47.993Z,1.31
2023-01-19T15:18:48.871Z,1.31
2023-01-19T15:23:49.721Z,1.20
2023-01-19T15:28:51.251Z,1.18
2023-01-19T15:33:52.097Z,1.11
2023-01-19T15:38:52.986Z,0.89
2023-01-19T15:43:54.100Z,0.94
2023-01-19T15:48:54.935Z,0.82
2023-01-19T15:53:56.070Z,0.85
2023-01-19T15:58:58.384Z,0.77
2023-01-19T16:04:03.706Z,0.54
2023-01-19T16:09:05.150Z,0.42
2023-01-19T16:14:05.990Z,0.34
2023-01-19T16:19:06.748Z,0.25
2023-01-19T16:24:07.520Z,0.20
2023-01-19T16:29:09.799Z,0.15
2023-01-19T16:34:10.649Z,0.12
2023-01-19T16:39:13.712Z,0.07
2023-01-19T16:44:15.588Z,0.01
2023-01-19T16:49:20.373Z,-0.12
2023-01-19T16:54:25.506Z,-0.20
2023-01-19T16:59:28.201Z,-0.20
2023-01-19T17:04:28.970Z,-0.39
2023-01-19T17:09:30.213Z,-0.44
2023-01-19T17:14:30.949Z,-0.42
2023-01-19T17:19:31.724Z,-0.49
2023-01-19T17:24:32.593Z,-0.51
2023-01-19T17:29:33.398Z,-0.62
2023-01-19T17:34:34.194Z,-0.60
2023-01-19T17:39:35.119Z,-0.61
2023-01-19T17:44:36.008Z,-0.68
2023-01-19T17:49:37.118Z,-0.65
2023-01-19T17:54:37.904Z,-0.79
2023-01-19T17:59:40.637Z,-0.67
2023-01-19T18:04:41.626Z,-0.71
2023-01-19T18:09:42.464Z,-0.73
2023-01-19T18:14:43.252Z,-0.76
2023-01-19T18:19:44.086Z,-0.69
2023-01-19T18:24:45.053Z,-0.66
2023-01-19T18:29:45.890Z,-0.68
2023-01-19T18:34:46.680Z,-0.69
2023-01-19T18:39:47.564Z,-0.73
2023-01-19T18:44:48.316Z,-0.78
2023-01-19T18:49:49.399Z,-0.75
2023-01-19T18:54:50.138Z,-0.79
2023-01-19T18:59:51.171Z,-0.83
2023-01-19T19:04:51.923Z,-0.89
2023-01-19T19:09:52.867Z,-0.83
2023-01-19T19:14:53.617Z,-0.82
2023-01-19T19:19:54.359Z,-0.69
2023-01-19T19:24:55.113Z,-0.67
2023-01-19T19:29:55.896Z,-0.62
2023-01-19T19:34:58.111Z,-0.51
2023-01-19T19:39:59.178Z,-0.51
2023-01-19T19:44:59.984Z,-0.44
2023-01-19T19:50:00.840Z,-0.48
2023-01-19T19:55:01.706Z,-0.45
2023-01-19T20:00:04.415Z,-0.33
2023-01-19T20:05:09.978Z,-0.40
2023-01-19T20:10:11.169Z,-0.41
2023-01-19T20:15:11.999Z,-0.37
2023-01-19T20:20:13.136Z,-0.38
2023-01-19T20:25:14.104Z,-0.20
2023-01-19T20:30:15.101Z,-0.44
2023-01-19T20:35:15.927Z,-0.71
2023-01-19T20:40:17.138Z,-0.73
2023-01-19T20:45:19.823Z,-0.82
2023-01-19T20:50:20.585Z,-1.01
2023-01-19T20:55:21.445Z,-0.89
2023-01-19T21:00:22.283Z,-0.95
2023-01-19T21:05:23.728Z,-0.92
2023-01-19T21:10:25.614Z,-0.88
2023-01-19T21:15:26.418Z,-0.89
2023-01-19T21:20:30.563Z,-0.36
2023-01-19T21:25:31.315Z,-0.07
2023-01-19T21:30:32.155Z,-0.51
2023-01-19T21:35:32.920Z,-0.78
2023-01-19T21:40:36.027Z,-1.06
2023-01-19T21:45:36.852Z,-1.28
2023-01-19T21:50:38.356Z,-1.40
2023-01-19T21:55:44.147Z,-1.44
2023-01-19T22:00:44.930Z,-1.48
2023-01-19T22:05:45.720Z,-1.64
2023-01-19T22:10:46.647Z,-1.77
2023-01-19T22:15:47.398Z,-1.78
2023-01-19T22:20:48.148Z,-1.81
2023-01-19T22:25:48.952Z,-2.10
2023-01-19T22:30:49.801Z,-2.19
2023-01-19T22:35:50.634Z,-2.12
2023-01-19T22:40:51.477Z,-2.04
2023-01-19T22:45:52.317Z,-1.91
2023-01-19T22:50:56.430Z,-1.94
2023-01-19T22:55:57.224Z,-1.98
2023-01-19T23:01:04.984Z,-2.05
2023-01-19T23:06:11.939Z,-2.05
2023-01-19T23:11:15.867Z,-2.05
2023-01-19T23:16:17.264Z,-1.98
2023-01-19T23:21:21.074Z,-1.96
2023-01-19T23:26:23.091Z,-2.03
2023-01-19T23:31:32.967Z,-1.95
2023-01-19T23:36:35.182Z,-1.90
2023-01-19T23:41:36.144Z,-1.81
2023-01-19T23:46:37.555Z,-1.83
2023-01-19T23:51:39.303Z,-1.92
2023-01-19T23:56:41.765Z,-1.90
